sensor_id;sensor_type;location;lat;lon;timestamp;pressure;altitude;pressure_sealevel;temperature;humidity
74905;BME280;63465;50.862;6.220;2022-12-29T00:01:47;98652.88;;;11.19;78.64
74905;BME280;63465;50.862;6.220;2022-12-29T00:04:14;98627.22;;;11.19;78.91
74905;BME280;63465;50.862;6.220;2022-12-29T00:06:43;98639.63;;;11.19;78.76
74905;BME280;63465;50.862;6.220;2022-12-29T00:09:11;98636.75;;;11.22;78.56
74905;BME280;63465;50.862;6.220;2022-12-29T00:11:38;98652.47;;;11.25;78.49
74905;BME280;63465;50.862;6.220;2022-12-29T00:14:05;98629.44;;;11.26;78.27
74905;BME280;63465;50.862;6.220;2022-12-29T00:16:49;98629.22;;;11.29;78.30
74905;BME280;63465;50.862;6.220;2022-12-29T00:19:16;98642.41;;;11.30;78.20
74905;BME280;63465;50.862;6.220;2022-12-29T00:22:02;98620.19;;;11.31;77.82
74905;BME280;63465;50.862;6.220;2022-12-29T00:24:46;98611.88;;;11.36;77.63
74905;BME280;63465;50.862;6.220;2022-12-29T00:27:31;98598.06;;;11.18;78.86
74905;BME280;63465;50.862;6.220;2022-12-29T00:30:17;98613.50;;;11.26;77.67
74905;BME280;63465;50.862;6.220;2022-12-29T00:33:08;98583.22;;;11.28;77.83
74905;BME280;63465;50.862;6.220;2022-12-29T00:35:56;98610.31;;;11.33;77.24
74905;BME280;63465;50.862;6.220;2022-12-29T00:38:27;98606.69;;;11.09;79.50
74905;BME280;63465;50.862;6.220;2022-12-29T00:41:12;98590.84;;;10.94;80.79
74905;BME280;63465;50.862;6.220;2022-12-29T00:43:56;98553.59;;;10.83;81.27
74905;BME280;63465;50.862;6.220;2022-12-29T00:46:32;98559.44;;;10.75;81.20
74905;BME280;63465;50.862;6.220;2022-12-29T00:49:00;98575.97;;;10.92;78.63
74905;BME280;63465;50.862;6.220;2022-12-29T00:51:57;98584.06;;;11.03;77.95
74905;BME280;63465;50.862;6.220;2022-12-29T00:54:27;98589.81;;;11.10;77.39
74905;BME280;63465;50.862;6.220;2022-12-29T00:56:54;98604.03;;;11.21;76.76
74905;BME280;63465;50.862;6.220;2022-12-29T00:59:21;98600.84;;;11.29;75.32
74905;BME280;63465;50.862;6.220;2022-12-29T01:01:50;98602.47;;;11.32;75.36
74905;BME280;63465;50.862;6.220;2022-12-29T01:04:19;98601.59;;;11.31;75.58
74905;BME280;63465;50.862;6.220;2022-12-29T01:06:48;98635.47;;;11.28;75.09
74905;BME280;63465;50.862;6.220;2022-12-29T01:09:15;98607.22;;;11.27;75.33
74905;BME280;63465;50.862;6.220;2022-12-29T01:12:02;98621.78;;;11.21;75.43
74905;BME280;63465;50.862;6.220;2022-12-29T01:14:29;98593.09;;;11.26;75.33
74905;BME280;63465;50.862;6.220;2022-12-29T01:16:56;98613.41;;;11.27;75.16
74905;BME280;63465;50.862;6.220;2022-12-29T01:19:24;98588.31;;;11.18;75.37
74905;BME280;63465;50.862;6.220;2022-12-29T01:21:51;98575.16;;;11.17;75.37
74905;BME280;63465;50.862;6.220;2022-12-29T01:24:19;98594.06;;;11.12;75.61
74905;BME280;63465;50.862;6.220;2022-12-29T01:26:46;98584.19;;;11.14;74.99
74905;BME280;63465;50.862;6.220;2022-12-29T01:29:17;98586.50;;;11.19;74.48
74905;BME280;63465;50.862;6.220;2022-12-29T01:31:47;98555.59;;;11.18;74.31
74905;BME280;63465;50.862;6.220;2022-12-29T01:34:14;98590.44;;;11.26;74.05
74905;BME280;63465;50.862;6.220;2022-12-29T01:36:41;98572.41;;;11.18;74.39
74905;BME280;63465;50.862;6.220;2022-12-29T01:39:08;98556.34;;;11.20;73.78
74905;BME280;63465;50.862;6.220;2022-12-29T01:41:34;98552.63;;;11.10;74.23
74905;BME280;63465;50.862;6.220;2022-12-29T01:44:01;98557.84;;;11.11;74.00
74905;BME280;63465;50.862;6.220;2022-12-29T01:46:34;98571.00;;;11.13;73.47
74905;BME280;63465;50.862;6.220;2022-12-29T01:49:08;98556.88;;;11.25;72.52
74905;BME280;63465;50.862;6.220;2022-12-29T01:51:41;98564.63;;;11.28;71.97
74905;BME280;63465;50.862;6.220;2022-12-29T01:54:11;98567.06;;;11.31;71.96
74905;BME280;63465;50.862;6.220;2022-12-29T01:56:39;98580.22;;;11.33;71.82
74905;BME280;63465;50.862;6.220;2022-12-29T01:59:10;98576.84;;;11.31;72.11
74905;BME280;63465;50.862;6.220;2022-12-29T02:01:39;98555.16;;;11.37;72.07
74905;BME280;63465;50.862;6.220;2022-12-29T02:04:08;98537.41;;;11.37;72.00
74905;BME280;63465;50.862;6.220;2022-12-29T02:06:41;98587.66;;;11.40;72.01
74905;BME280;63465;50.862;6.220;2022-12-29T02:09:09;98560.03;;;11.43;72.17
74905;BME280;63465;50.862;6.220;2022-12-29T02:11:38;98560.88;;;11.43;72.26
74905;BME280;63465;50.862;6.220;2022-12-29T02:14:09;98552.47;;;11.50;72.19
74905;BME280;63465;50.862;6.220;2022-12-29T02:16:47;98549.94;;;11.48;72.46
74905;BME280;63465;50.862;6.220;2022-12-29T02:19:40;98545.16;;;11.53;71.96
74905;BME280;63465;50.862;6.220;2022-12-29T02:22:22;98539.28;;;11.61;71.75
74905;BME280;63465;50.862;6.220;2022-12-29T02:25:22;98548.94;;;11.62;71.78
74905;BME280;63465;50.862;6.220;2022-12-29T02:28:09;98543.19;;;11.68;71.86
74905;BME280;63465;50.862;6.220;2022-12-29T02:30:51;98580.59;;;11.65;72.34
74905;BME280;63465;50.862;6.220;2022-12-29T02:33:33;98529.72;;;11.58;72.57
74905;BME280;63465;50.862;6.220;2022-12-29T02:36:12;98548.38;;;11.46;73.53
74905;BME280;63465;50.862;6.220;2022-12-29T02:38:56;98543.97;;;11.57;72.42
74905;BME280;63465;50.862;6.220;2022-12-29T02:41:30;98553.84;;;11.55;72.78
74905;BME280;63465;50.862;6.220;2022-12-29T02:44:02;98552.25;;;11.53;72.75
74905;BME280;63465;50.862;6.220;2022-12-29T02:46:35;98540.91;;;11.51;73.08
74905;BME280;63465;50.862;6.220;2022-12-29T02:49:09;98536.69;;;11.35;73.93
74905;BME280;63465;50.862;6.220;2022-12-29T02:51:43;98519.47;;;11.28;74.59
74905;BME280;63465;50.862;6.220;2022-12-29T02:54:10;98521.91;;;11.31;74.41
74905;BME280;63465;50.862;6.220;2022-12-29T02:56:54;98516.09;;;11.26;74.49
74905;BME280;63465;50.862;6.220;2022-12-29T02:59:22;98504.09;;;11.33;74.67
74905;BME280;63465;50.862;6.220;2022-12-29T03:02:27;98511.19;;;11.33;74.30
74905;BME280;63465;50.862;6.220;2022-12-29T03:05:11;98512.06;;;11.33;74.35
74905;BME280;63465;50.862;6.220;2022-12-29T03:07:49;98505.31;;;11.40;73.85
74905;BME280;63465;50.862;6.220;2022-12-29T03:10:30;98508.31;;;11.49;73.75
74905;BME280;63465;50.862;6.220;2022-12-29T03:13:02;98500.09;;;11.52;73.65
74905;BME280;63465;50.862;6.220;2022-12-29T03:15:55;98496.34;;;11.54;73.60
74905;BME280;63465;50.862;6.220;2022-12-29T03:18:41;98497.56;;;11.50;73.72
74905;BME280;63465;50.862;6.220;2022-12-29T03:21:16;98488.06;;;11.59;73.10
74905;BME280;63465;50.862;6.220;2022-12-29T03:23:46;98466.53;;;11.51;73.39
74905;BME280;63465;50.862;6.220;2022-12-29T03:26:16;98466.41;;;11.52;73.10
74905;BME280;63465;50.862;6.220;2022-12-29T03:28:50;98475.22;;;11.53;73.28
74905;BME280;63465;50.862;6.220;2022-12-29T03:31:22;98468.22;;;11.52;73.22
74905;BME280;63465;50.862;6.220;2022-12-29T03:33:55;98487.38;;;11.44;73.64
74905;BME280;63465;50.862;6.220;2022-12-29T03:36:27;98482.03;;;11.57;72.76
74905;BME280;63465;50.862;6.220;2022-12-29T03:39:00;98488.59;;;11.64;71.99
74905;BME280;63465;50.862;6.220;2022-12-29T03:41:31;98485.75;;;11.54;72.30
74905;BME280;63465;50.862;6.220;2022-12-29T03:44:01;98453.72;;;11.69;71.22
74905;BME280;63465;50.862;6.220;2022-12-29T03:46:28;98458.00;;;11.58;71.96
74905;BME280;63465;50.862;6.220;2022-12-29T03:48:57;98462.41;;;11.71;71.02
74905;BME280;63465;50.862;6.220;2022-12-29T03:51:23;98441.16;;;11.71;70.93
74905;BME280;63465;50.862;6.220;2022-12-29T03:53:51;98445.63;;;11.70;70.93
74905;BME280;63465;50.862;6.220;2022-12-29T03:56:18;98443.66;;;11.61;71.47
74905;BME280;63465;50.862;6.220;2022-12-29T03:58:46;98459.47;;;11.63;71.11
74905;BME280;63465;50.862;6.220;2022-12-29T04:01:18;98464.69;;;11.64;71.22
74905;BME280;63465;50.862;6.220;2022-12-29T04:03:46;98470.84;;;11.65;71.03
74905;BME280;63465;50.862;6.220;2022-12-29T04:06:14;98483.66;;;11.71;70.90
74905;BME280;63465;50.862;6.220;2022-12-29T04:08:48;98475.09;;;11.67;71.08
74905;BME280;63465;50.862;6.220;2022-12-29T04:11:15;98489.81;;;11.71;70.68
74905;BME280;63465;50.862;6.220;2022-12-29T04:13:43;98489.13;;;11.81;70.37
74905;BME280;63465;50.862;6.220;2022-12-29T04:16:13;98467.88;;;11.81;70.07
74905;BME280;63465;50.862;6.220;2022-12-29T04:18:41;98501.59;;;11.80;69.95
74905;BME280;63465;50.862;6.220;2022-12-29T04:21:08;98508.50;;;11.83;70.12
74905;BME280;63465;50.862;6.220;2022-12-29T04:23:39;98498.09;;;11.80;70.01
74905;BME280;63465;50.862;6.220;2022-12-29T04:26:08;98491.69;;;11.82;69.83
74905;BME280;63465;50.862;6.220;2022-12-29T04:28:45;98514.66;;;11.83;69.54
74905;BME280;63465;50.862;6.220;2022-12-29T04:31:25;98513.28;;;11.77;69.63
74905;BME280;63465;50.862;6.220;2022-12-29T04:33:52;98486.81;;;11.76;69.74
74905;BME280;63465;50.862;6.220;2022-12-29T04:36:20;98479.06;;;11.73;70.15
74905;BME280;63465;50.862;6.220;2022-12-29T04:38:48;98492.59;;;11.70;70.29
74905;BME280;63465;50.862;6.220;2022-12-29T04:41:14;98488.16;;;11.70;70.34
74905;BME280;63465;50.862;6.220;2022-12-29T04:43:42;98485.38;;;11.72;69.61
74905;BME280;63465;50.862;6.220;2022-12-29T04:46:20;98490.13;;;11.80;69.06
74905;BME280;63465;50.862;6.220;2022-12-29T04:48:57;98484.50;;;11.71;69.13
74905;BME280;63465;50.862;6.220;2022-12-29T04:51:46;98486.03;;;11.63;69.96
74905;BME280;63465;50.862;6.220;2022-12-29T04:54:15;98508.59;;;11.57;69.83
74905;BME280;63465;50.862;6.220;2022-12-29T04:56:47;98516.84;;;11.65;69.42
74905;BME280;63465;50.862;6.220;2022-12-29T04:59:15;98520.88;;;11.71;69.08
74905;BME280;63465;50.862;6.220;2022-12-29T05:01:44;98519.81;;;11.73;69.04
74905;BME280;63465;50.862;6.220;2022-12-29T05:04:11;98524.38;;;11.71;68.88
74905;BME280;63465;50.862;6.220;2022-12-29T05:06:38;98501.53;;;11.69;68.69
74905;BME280;63465;50.862;6.220;2022-12-29T05:09:04;98525.34;;;11.70;68.79
74905;BME280;63465;50.862;6.220;2022-12-29T05:11:34;98521.09;;;11.68;69.36
74905;BME280;63465;50.862;6.220;2022-12-29T05:14:01;98519.72;;;11.62;69.49
74905;BME280;63465;50.862;6.220;2022-12-29T05:16:28;98520.28;;;11.54;69.78
74905;BME280;63465;50.862;6.220;2022-12-29T05:18:56;98536.44;;;11.51;70.20
74905;BME280;63465;50.862;6.220;2022-12-29T05:21:23;98532.00;;;11.52;70.28
74905;BME280;63465;50.862;6.220;2022-12-29T05:23:50;98556.13;;;11.49;70.72
74905;BME280;63465;50.862;6.220;2022-12-29T05:26:17;98540.19;;;11.49;70.72
74905;BME280;63465;50.862;6.220;2022-12-29T05:29:04;98536.88;;;11.45;70.28
74905;BME280;63465;50.862;6.220;2022-12-29T05:31:31;98544.84;;;11.45;70.39
74905;BME280;63465;50.862;6.220;2022-12-29T05:33:58;98552.63;;;11.35;70.16
74905;BME280;63465;50.862;6.220;2022-12-29T05:36:26;98546.88;;;11.41;69.57
74905;BME280;63465;50.862;6.220;2022-12-29T05:38:57;98550.47;;;11.40;69.86
74905;BME280;63465;50.862;6.220;2022-12-29T05:41:24;98527.94;;;11.46;69.04
74905;BME280;63465;50.862;6.220;2022-12-29T05:43:56;98542.06;;;11.47;68.34
74905;BME280;63465;50.862;6.220;2022-12-29T05:46:30;98541.78;;;11.38;68.68
74905;BME280;63465;50.862;6.220;2022-12-29T05:49:17;98550.03;;;11.47;66.44
74905;BME280;63465;50.862;6.220;2022-12-29T05:52:03;98558.88;;;11.47;66.82
74905;BME280;63465;50.862;6.220;2022-12-29T05:54:32;98532.09;;;11.50;65.41
74905;BME280;63465;50.862;6.220;2022-12-29T05:56:59;98550.69;;;11.50;65.96
74905;BME280;63465;50.862;6.220;2022-12-29T05:59:27;98542.19;;;11.45;65.95
74905;BME280;63465;50.862;6.220;2022-12-29T06:01:55;98550.38;;;11.42;66.23
74905;BME280;63465;50.862;6.220;2022-12-29T06:04:22;98561.09;;;11.40;66.65
74905;BME280;63465;50.862;6.220;2022-12-29T06:06:49;98563.13;;;11.37;67.14
74905;BME280;63465;50.862;6.220;2022-12-29T06:09:22;98567.16;;;11.30;67.40
74905;BME280;63465;50.862;6.220;2022-12-29T06:11:49;98571.03;;;11.26;68.29
74905;BME280;63465;50.862;6.220;2022-12-29T06:14:16;98584.19;;;11.27;68.12
74905;BME280;63465;50.862;6.220;2022-12-29T06:16:42;98592.69;;;11.19;68.63
74905;BME280;63465;50.862;6.220;2022-12-29T06:19:12;98572.91;;;11.23;68.90
74905;BME280;63465;50.862;6.220;2022-12-29T06:21:39;98570.25;;;11.23;68.82
74905;BME280;63465;50.862;6.220;2022-12-29T06:24:06;98564.94;;;11.23;68.77
74905;BME280;63465;50.862;6.220;2022-12-29T06:26:35;98580.88;;;11.23;68.95
74905;BME280;63465;50.862;6.220;2022-12-29T06:29:02;98577.28;;;11.24;68.88
74905;BME280;63465;50.862;6.220;2022-12-29T06:31:29;98587.06;;;11.24;69.01
74905;BME280;63465;50.862;6.220;2022-12-29T06:33:56;98572.19;;;11.21;69.54
74905;BME280;63465;50.862;6.220;2022-12-29T06:36:24;98581.19;;;11.19;69.89
74905;BME280;63465;50.862;6.220;2022-12-29T06:38:51;98590.88;;;11.20;70.27
74905;BME280;63465;50.862;6.220;2022-12-29T06:41:18;98594.47;;;11.19;69.60
74905;BME280;63465;50.862;6.220;2022-12-29T06:44:03;98599.47;;;11.23;70.01
74905;BME280;63465;50.862;6.220;2022-12-29T06:46:48;98601.72;;;11.17;70.17
74905;BME280;63465;50.862;6.220;2022-12-29T06:49:15;98603.38;;;11.18;69.90
74905;BME280;63465;50.862;6.220;2022-12-29T06:51:43;98588.75;;;11.25;69.44
74905;BME280;63465;50.862;6.220;2022-12-29T06:54:11;98601.19;;;11.24;70.09
74905;BME280;63465;50.862;6.220;2022-12-29T06:56:37;98609.47;;;11.20;70.06
74905;BME280;63465;50.862;6.220;2022-12-29T06:59:04;98607.97;;;11.16;69.97
74905;BME280;63465;50.862;6.220;2022-12-29T07:01:31;98608.69;;;11.18;70.03
74905;BME280;63465;50.862;6.220;2022-12-29T07:03:58;98614.00;;;11.18;69.77
74905;BME280;63465;50.862;6.220;2022-12-29T07:06:24;98625.91;;;11.12;69.98
74905;BME280;63465;50.862;6.220;2022-12-29T07:08:53;98621.22;;;11.16;70.11
74905;BME280;63465;50.862;6.220;2022-12-29T07:11:20;98630.34;;;11.12;70.48
74905;BME280;63465;50.862;6.220;2022-12-29T07:13:47;98636.84;;;11.07;71.11
74905;BME280;63465;50.862;6.220;2022-12-29T07:16:14;98638.94;;;11.02;70.99
74905;BME280;63465;50.862;6.220;2022-12-29T07:18:40;98636.97;;;11.06;71.04
74905;BME280;63465;50.862;6.220;2022-12-29T07:21:07;98651.59;;;10.99;71.46
74905;BME280;63465;50.862;6.220;2022-12-29T07:23:34;98655.09;;;10.99;71.33
74905;BME280;63465;50.862;6.220;2022-12-29T07:26:04;98663.81;;;11.01;71.35
74905;BME280;63465;50.862;6.220;2022-12-29T07:28:31;98667.31;;;11.02;71.22
74905;BME280;63465;50.862;6.220;2022-12-29T07:30:58;98666.78;;;11.10;69.63
74905;BME280;63465;50.862;6.220;2022-12-29T07:33:28;98660.75;;;11.07;69.68
74905;BME280;63465;50.862;6.220;2022-12-29T07:35:54;98659.44;;;11.00;69.47
74905;BME280;63465;50.862;6.220;2022-12-29T07:38:21;98656.91;;;10.99;68.95
74905;BME280;63465;50.862;6.220;2022-12-29T07:40:48;98675.28;;;11.02;68.99
74905;BME280;63465;50.862;6.220;2022-12-29T07:43:16;98665.81;;;10.98;69.26
74905;BME280;63465;50.862;6.220;2022-12-29T07:45:56;98666.88;;;10.95;70.03
74905;BME280;63465;50.862;6.220;2022-12-29T07:48:23;98661.00;;;10.90;69.39
74905;BME280;63465;50.862;6.220;2022-12-29T07:50:50;98647.84;;;10.88;69.35
74905;BME280;63465;50.862;6.220;2022-12-29T07:53:18;98652.81;;;10.80;69.08
74905;BME280;63465;50.862;6.220;2022-12-29T07:55:44;98655.38;;;10.82;68.66
74905;BME280;63465;50.862;6.220;2022-12-29T07:58:11;98671.72;;;10.76;68.52
74905;BME280;63465;50.862;6.220;2022-12-29T08:00:39;98662.59;;;10.80;68.23
74905;BME280;63465;50.862;6.220;2022-12-29T08:03:06;98663.34;;;10.82;67.66
74905;BME280;63465;50.862;6.220;2022-12-29T08:05:33;98668.75;;;10.80;67.52
74905;BME280;63465;50.862;6.220;2022-12-29T08:08:00;98688.16;;;10.81;67.04
74905;BME280;63465;50.862;6.220;2022-12-29T08:10:27;98695.50;;;10.77;67.36
74905;BME280;63465;50.862;6.220;2022-12-29T08:12:54;98707.81;;;10.78;67.39
74905;BME280;63465;50.862;6.220;2022-12-29T08:15:20;98701.53;;;10.79;67.42
74905;BME280;63465;50.862;6.220;2022-12-29T08:17:48;98713.34;;;10.88;66.48
74905;BME280;63465;50.862;6.220;2022-12-29T08:20:15;98696.69;;;10.86;66.87
74905;BME280;63465;50.862;6.220;2022-12-29T08:22:42;98720.81;;;10.96;66.48
74905;BME280;63465;50.862;6.220;2022-12-29T08:25:08;98708.72;;;11.04;65.79
74905;BME280;63465;50.862;6.220;2022-12-29T08:27:35;98695.47;;;11.04;65.47
74905;BME280;63465;50.862;6.220;2022-12-29T08:30:02;98703.44;;;11.04;65.71
74905;BME280;63465;50.862;6.220;2022-12-29T08:32:29;98721.25;;;11.02;65.94
74905;BME280;63465;50.862;6.220;2022-12-29T08:34:58;98721.50;;;11.12;65.59
74905;BME280;63465;50.862;6.220;2022-12-29T08:37:24;98723.38;;;11.10;65.90
74905;BME280;63465;50.862;6.220;2022-12-29T08:39:51;98721.28;;;11.15;64.55
74905;BME280;63465;50.862;6.220;2022-12-29T08:42:18;98722.03;;;11.17;64.51
74905;BME280;63465;50.862;6.220;2022-12-29T08:44:44;98724.16;;;11.12;64.77
74905;BME280;63465;50.862;6.220;2022-12-29T08:47:11;98725.59;;;11.03;64.03
74905;BME280;63465;50.862;6.220;2022-12-29T08:49:38;98738.03;;;11.03;63.72
74905;BME280;63465;50.862;6.220;2022-12-29T08:52:07;98754.06;;;11.01;64.06
74905;BME280;63465;50.862;6.220;2022-12-29T08:54:34;98732.25;;;10.96;63.98
74905;BME280;63465;50.862;6.220;2022-12-29T08:57:00;98737.78;;;10.93;64.11
74905;BME280;63465;50.862;6.220;2022-12-29T08:59:35;98752.84;;;10.93;64.28
74905;BME280;63465;50.862;6.220;2022-12-29T09:02:02;98741.50;;;10.91;64.17
74905;BME280;63465;50.862;6.220;2022-12-29T09:04:29;98749.38;;;10.92;63.60
74905;BME280;63465;50.862;6.220;2022-12-29T09:06:55;98751.03;;;10.93;63.94
74905;BME280;63465;50.862;6.220;2022-12-29T09:09:23;98757.03;;;10.97;64.38
74905;BME280;63465;50.862;6.220;2022-12-29T09:11:50;98769.41;;;10.96;63.55
74905;BME280;63465;50.862;6.220;2022-12-29T09:14:17;98752.84;;;10.93;63.63
74905;BME280;63465;50.862;6.220;2022-12-29T09:16:44;98777.59;;;10.93;63.69
74905;BME280;63465;50.862;6.220;2022-12-29T09:19:28;98751.63;;;10.98;63.73
74905;BME280;63465;50.862;6.220;2022-12-29T09:21:56;98768.03;;;10.91;63.52
74905;BME280;63465;50.862;6.220;2022-12-29T09:24:24;98765.81;;;10.97;63.80
74905;BME280;63465;50.862;6.220;2022-12-29T09:26:51;98759.69;;;10.97;62.94
74905;BME280;63465;50.862;6.220;2022-12-29T09:29:18;98768.59;;;10.96;63.30
74905;BME280;63465;50.862;6.220;2022-12-29T09:31:44;98757.44;;;10.91;63.28
74905;BME280;63465;50.862;6.220;2022-12-29T09:34:11;98762.13;;;11.00;63.01
74905;BME280;63465;50.862;6.220;2022-12-29T09:36:38;98767.34;;;11.01;62.63
74905;BME280;63465;50.862;6.220;2022-12-29T09:39:04;98763.50;;;11.05;62.58
74905;BME280;63465;50.862;6.220;2022-12-29T09:41:37;98762.66;;;11.05;62.83
74905;BME280;63465;50.862;6.220;2022-12-29T09:44:11;98753.09;;;11.02;62.68
74905;BME280;63465;50.862;6.220;2022-12-29T09:46:41;98766.94;;;11.07;62.41
74905;BME280;63465;50.862;6.220;2022-12-29T09:49:20;98754.09;;;11.14;62.40
74905;BME280;63465;50.862;6.220;2022-12-29T09:51:50;98783.09;;;11.17;62.13
74905;BME280;63465;50.862;6.220;2022-12-29T09:54:30;98775.13;;;11.17;62.10
74905;BME280;63465;50.862;6.220;2022-12-29T09:57:02;98796.03;;;11.09;61.69
74905;BME280;63465;50.862;6.220;2022-12-29T09:59:38;98780.09;;;11.09;61.23
74905;BME280;63465;50.862;6.220;2022-12-29T10:02:16;98785.50;;;11.07;61.44
74905;BME280;63465;50.862;6.220;2022-12-29T10:04:47;98789.50;;;11.00;61.63
74905;BME280;63465;50.862;6.220;2022-12-29T10:07:19;98779.63;;;11.02;61.98
74905;BME280;63465;50.862;6.220;2022-12-29T10:09:56;98786.75;;;11.02;61.13
74905;BME280;63465;50.862;6.220;2022-12-29T10:12:38;98789.41;;;11.02;61.45
74905;BME280;63465;50.862;6.220;2022-12-29T10:15:14;98775.69;;;10.95;61.42
74905;BME280;63465;50.862;6.220;2022-12-29T10:17:50;98795.56;;;11.02;61.60
74905;BME280;63465;50.862;6.220;2022-12-29T10:20:28;98777.88;;;11.16;60.35
74905;BME280;63465;50.862;6.220;2022-12-29T10:23:22;98806.28;;;11.28;60.89
74905;BME280;63465;50.862;6.220;2022-12-29T10:25:54;98792.41;;;11.10;61.06
74905;BME280;63465;50.862;6.220;2022-12-29T10:28:24;98813.13;;;11.18;61.50
74905;BME280;63465;50.862;6.220;2022-12-29T10:30:59;98795.63;;;11.15;61.38
74905;BME280;63465;50.862;6.220;2022-12-29T10:33:34;98791.63;;;11.22;61.25
74905;BME280;63465;50.862;6.220;2022-12-29T10:36:11;98812.91;;;11.35;60.83
74905;BME280;63465;50.862;6.220;2022-12-29T10:38:44;98809.94;;;11.40;60.43
74905;BME280;63465;50.862;6.220;2022-12-29T10:41:17;98805.03;;;11.47;60.35
74905;BME280;63465;50.862;6.220;2022-12-29T10:43:51;98807.72;;;11.47;60.18
74905;BME280;63465;50.862;6.220;2022-12-29T10:46:20;98797.63;;;11.52;59.71
74905;BME280;63465;50.862;6.220;2022-12-29T10:48:49;98802.72;;;11.95;59.00
74905;BME280;63465;50.862;6.220;2022-12-29T10:51:20;98791.31;;;12.19;57.75
74905;BME280;63465;50.862;6.220;2022-12-29T10:53:51;98822.53;;;12.54;55.96
74905;BME280;63465;50.862;6.220;2022-12-29T10:56:26;98807.50;;;13.02;54.10
74905;BME280;63465;50.862;6.220;2022-12-29T10:58:58;98836.28;;;12.97;54.18
74905;BME280;63465;50.862;6.220;2022-12-29T11:01:32;98840.53;;;12.37;55.30
74905;BME280;63465;50.862;6.220;2022-12-29T11:04:03;98822.75;;;12.63;55.26
74905;BME280;63465;50.862;6.220;2022-12-29T11:06:32;98812.50;;;13.07;54.11
74905;BME280;63465;50.862;6.220;2022-12-29T11:09:02;98843.63;;;12.70;55.49
74905;BME280;63465;50.862;6.220;2022-12-29T11:11:36;98839.72;;;12.87;55.61
74905;BME280;63465;50.862;6.220;2022-12-29T11:14:11;98847.47;;;12.53;56.17
74905;BME280;63465;50.862;6.220;2022-12-29T11:16:39;98851.09;;;12.00;57.55
74905;BME280;63465;50.862;6.220;2022-12-29T11:19:20;98861.94;;;11.70;59.09
74905;BME280;63465;50.862;6.220;2022-12-29T11:21:47;98874.28;;;11.58;59.68
74905;BME280;63465;50.862;6.220;2022-12-29T11:24:20;98867.13;;;11.46;59.80
74905;BME280;63465;50.862;6.220;2022-12-29T11:26:49;98869.28;;;11.26;59.97
74905;BME280;63465;50.862;6.220;2022-12-29T11:29:24;98885.00;;;11.29;60.15
74905;BME280;63465;50.862;6.220;2022-12-29T11:31:52;98895.09;;;11.24;60.06
74905;BME280;63465;50.862;6.220;2022-12-29T11:34:22;98870.72;;;11.17;60.25
74905;BME280;63465;50.862;6.220;2022-12-29T11:36:52;98884.38;;;11.11;61.09
74905;BME280;63465;50.862;6.220;2022-12-29T11:39:27;98879.19;;;11.10;60.46
74905;BME280;63465;50.862;6.220;2022-12-29T11:41:56;98895.84;;;11.12;61.06
74905;BME280;63465;50.862;6.220;2022-12-29T11:44:25;98895.19;;;11.08;60.74
74905;BME280;63465;50.862;6.220;2022-12-29T11:46:53;98885.44;;;11.09;61.25
74905;BME280;63465;50.862;6.220;2022-12-29T11:49:22;98888.47;;;11.17;60.57
74905;BME280;63465;50.862;6.220;2022-12-29T11:51:51;98892.44;;;11.10;60.89
74905;BME280;63465;50.862;6.220;2022-12-29T11:54:23;98902.47;;;11.19;61.05
74905;BME280;63465;50.862;6.220;2022-12-29T11:56:50;98895.44;;;11.18;61.24
74905;BME280;63465;50.862;6.220;2022-12-29T11:59:38;98902.03;;;11.12;61.76
74905;BME280;63465;50.862;6.220;2022-12-29T12:02:40;98893.63;;;11.33;61.56
74905;BME280;63465;50.862;6.220;2022-12-29T12:05:21;98902.28;;;11.89;60.13
74905;BME280;63465;50.862;6.220;2022-12-29T12:07:52;98908.34;;;12.70;57.18
74905;BME280;63465;50.862;6.220;2022-12-29T12:10:23;98892.22;;;12.97;55.61
74905;BME280;63465;50.862;6.220;2022-12-29T12:12:58;98865.97;;;13.77;52.75
74905;BME280;63465;50.862;6.220;2022-12-29T12:15:34;98878.53;;;13.87;52.12
74905;BME280;63465;50.862;6.220;2022-12-29T12:18:08;98879.44;;;13.75;51.44
74905;BME280;63465;50.862;6.220;2022-12-29T12:20:45;98890.22;;;12.75;54.59
74905;BME280;63465;50.862;6.220;2022-12-29T12:23:22;98899.41;;;12.58;55.23
74905;BME280;63465;50.862;6.220;2022-12-29T12:25:57;98885.56;;;12.40;56.56
74905;BME280;63465;50.862;6.220;2022-12-29T12:28:33;98899.59;;;12.04;56.82
74905;BME280;63465;50.862;6.220;2022-12-29T12:31:06;98897.50;;;11.82;58.02
74905;BME280;63465;50.862;6.220;2022-12-29T12:33:41;98908.53;;;11.75;58.29
74905;BME280;63465;50.862;6.220;2022-12-29T12:36:22;98903.13;;;11.50;58.62
74905;BME280;63465;50.862;6.220;2022-12-29T12:38:54;98911.31;;;11.47;59.30
74905;BME280;63465;50.862;6.220;2022-12-29T12:41:31;98902.94;;;11.53;59.66
74905;BME280;63465;50.862;6.220;2022-12-29T12:44:10;98898.72;;;11.36;59.94
74905;BME280;63465;50.862;6.220;2022-12-29T12:46:55;98907.75;;;11.33;60.35
74905;BME280;63465;50.862;6.220;2022-12-29T12:52:47;98911.03;;;11.10;61.00
74905;BME280;63465;50.862;6.220;2022-12-29T12:55:30;98897.66;;;11.11;61.07
74905;BME280;63465;50.862;6.220;2022-12-29T12:58:07;98915.78;;;11.04;61.81
74905;BME280;63465;50.862;6.220;2022-12-29T13:00:44;98920.81;;;10.95;62.27
74905;BME280;63465;50.862;6.220;2022-12-29T13:03:26;98930.59;;;10.94;63.49
74905;BME280;63465;50.862;6.220;2022-12-29T13:06:11;98927.38;;;10.89;62.51
74905;BME280;63465;50.862;6.220;2022-12-29T13:09:02;98923.56;;;10.93;61.55
74905;BME280;63465;50.862;6.220;2022-12-29T13:11:47;98916.97;;;10.86;61.35
74905;BME280;63465;50.862;6.220;2022-12-29T13:14:24;98917.06;;;10.84;60.75
74905;BME280;63465;50.862;6.220;2022-12-29T13:17:00;98930.22;;;10.71;61.11
74905;BME280;63465;50.862;6.220;2022-12-29T13:19:34;98935.91;;;10.80;61.52
74905;BME280;63465;50.862;6.220;2022-12-29T13:22:07;98955.34;;;10.80;61.85
74905;BME280;63465;50.862;6.220;2022-12-29T13:24:54;98937.16;;;10.74;61.17
74905;BME280;63465;50.862;6.220;2022-12-29T13:27:42;98919.78;;;10.68;60.49
74905;BME280;63465;50.862;6.220;2022-12-29T13:30:15;98931.91;;;10.87;60.43